Omskiy-141 — UGZK — position and weather

sailwx.info

Track history (hours):
 
Tides and Currents Weather Stations Pressure Air Temp Water Temp Dewpoint Dewpoint Depression Visibility Wind Speed Wind Dir Waves Ship Positions

Omskiy-141

Last reported at 2016-Dec-06 17:27 UTC. Time now 2016-Dec-09 09:39 UTC.
Position N 54°45' E 019°36'.

Length 108 m; draft 2.6 m.

Type: Cargo ship. MMSI: 273310600.

Date/timePositionNaut miles runAvg speedWind from/ knotsBaromVisibWave heightAir tempDewpointWater temp
2016-Dec-06 17:27N 54°45' E 019°36'9 8.3
2016-Dec-06 16:21N 54°50' E 019°23'9 8.2
2016-Dec-06 15:17N 54°55' E 019°10'6 8.3
2016-Dec-06 14:33N 54°59' E 019°02'9 8.4
2016-Dec-06 13:32N 55°04' E 018°50'10 8.5
2016-Dec-06 12:24N 55°09' E 018°36'15 5.3
2016-Dec-06 09:32N 55°02' E 018°12'153 6.6
2016-Dec-05 10:31N 53°43' E 014°27'9 8.9
2016-Dec-05 09:31N 53°36' E 014°35'  
2016-Dec-02 02:15N 53°35' E 014°34'3 3.9
2016-Dec-02 01:33N 53°37' E 014°35'9 8.4
2016-Dec-02 00:29N 53°44' E 014°26'77 2.8
2016-Nov-30 21:12N 54°51' E 015°32'8 7.0
2016-Nov-30 20:04N 54°57' E 015°41'4 6.7
2016-Nov-30 19:32N 54°59' E 015°46'  
2016-Nov-28 10:32N 59°39' E 023°10'4 4.4
2016-Nov-28 09:33N 59°40' E 023°18'0 0.0
2016-Nov-28 08:31N 59°40' E 023°18'0 0.0
2016-Nov-28 07:31N 59°40' E 023°18'0 0.0
2016-Nov-28 06:31N 59°40' E 023°18'0 0.0
2016-Nov-28 05:31N 59°40' E 023°18'0 0.0
2016-Nov-28 04:31N 59°40' E 023°18'0 0.0
2016-Nov-28 03:31N 59°40' E 023°18'0 0.0
2016-Nov-28 02:31N 59°40' E 023°18'0 0.0
2016-Nov-28 01:28N 59°40' E 023°18'0 0.0
2016-Nov-28 00:28N 59°40' E 023°18'0 0.0
2016-Nov-27 23:31N 59°40' E 023°18'0 0.0
2016-Nov-27 22:31N 59°40' E 023°18'0 0.0
2016-Nov-27 21:31N 59°40' E 023°18'0 0.0
2016-Nov-27 20:28N 59°40' E 023°18'0 0.0
2016-Nov-27 19:31N 59°40' E 023°18'0 0.0
2016-Nov-27 18:28N 59°40' E 023°18'0 0.0
2016-Nov-27 17:31N 59°40' E 023°18'0 0.0
2016-Nov-27 16:31N 59°40' E 023°18'0 0.0
2016-Nov-27 15:31N 59°40' E 023°18'0 0.0
2016-Nov-27 14:31N 59°40' E 023°18'0 0.0
2016-Nov-27 13:31N 59°40' E 023°18'0 0.0
2016-Nov-27 12:31N 59°40' E 023°18'0 0.0
2016-Nov-27 11:31N 59°40' E 023°18'0 0.0
2016-Nov-27 10:31N 59°40' E 023°18'0 0.0
2016-Nov-27 09:31N 59°40' E 023°18'0 0.0
2016-Nov-27 08:31N 59°40' E 023°18'0 0.0
2016-Nov-27 07:31N 59°40' E 023°18'0 0.0
2016-Nov-27 06:31N 59°40' E 023°18'0 0.0
2016-Nov-27 05:31N 59°40' E 023°18'0 0.0
2016-Nov-27 04:31N 59°40' E 023°18'0 0.0
2016-Nov-27 03:31N 59°40' E 023°18'0 0.0
2016-Nov-27 02:31N 59°40' E 023°18'0 0.0
2016-Nov-27 01:31N 59°40' E 023°18'0 0.0
2016-Nov-27 00:31N 59°40' E 023°18'3 3.4
2016-Nov-26 23:33N 59°40' E 023°25'6 6.4
2016-Nov-26 22:33N 59°42' E 023°37'7 6.5
2016-Nov-26 21:33N 59°43' E 023°49'7 6.7
2016-Nov-26 20:32N 59°45' E 024°02'  
Track history (hours):
 
Tides and Currents Weather Stations Pressure Air Temp Water Temp Dewpoint Dewpoint Depression Visibility Wind Speed Wind Dir Waves Ship Positions

Omskiy-141

Last reported at 2016-Dec-06 17:27 UTC. Time now 2016-Dec-09 09:39 UTC.
Position N 54°45' E 019°36'.

Length 108 m; draft 2.6 m.

Type: Cargo ship. MMSI: 273310600.

Date/timePositionNaut miles runAvg speedWind from/ knotsBaromVisibWave heightAir tempDewpointWater temp
2016-Dec-06 17:27N 54°45' E 019°36'9 8.3
2016-Dec-06 16:21N 54°50' E 019°23'9 8.2
2016-Dec-06 15:17N 54°55' E 019°10'6 8.3
2016-Dec-06 14:33N 54°59' E 019°02'9 8.4
2016-Dec-06 13:32N 55°04' E 018°50'10 8.5
2016-Dec-06 12:24N 55°09' E 018°36'15 5.3
2016-Dec-06 09:32N 55°02' E 018°12'153 6.6
2016-Dec-05 10:31N 53°43' E 014°27'9 8.9
2016-Dec-05 09:31N 53°36' E 014°35'  
2016-Dec-02 02:15N 53°35' E 014°34'3 3.9
2016-Dec-02 01:33N 53°37' E 014°35'9 8.4
2016-Dec-02 00:29N 53°44' E 014°26'77 2.8
2016-Nov-30 21:12N 54°51' E 015°32'8 7.0
2016-Nov-30 20:04N 54°57' E 015°41'4 6.7
2016-Nov-30 19:32N 54°59' E 015°46'  
2016-Nov-28 10:32N 59°39' E 023°10'4 4.4
2016-Nov-28 09:33N 59°40' E 023°18'0 0.0
2016-Nov-28 08:31N 59°40' E 023°18'0 0.0
2016-Nov-28 07:31N 59°40' E 023°18'0 0.0
2016-Nov-28 06:31N 59°40' E 023°18'0 0.0
2016-Nov-28 05:31N 59°40' E 023°18'0 0.0
2016-Nov-28 04:31N 59°40' E 023°18'0 0.0
2016-Nov-28 03:31N 59°40' E 023°18'0 0.0
2016-Nov-28 02:31N 59°40' E 023°18'0 0.0
2016-Nov-28 01:28N 59°40' E 023°18'0 0.0
2016-Nov-28 00:28N 59°40' E 023°18'0 0.0
2016-Nov-27 23:31N 59°40' E 023°18'0 0.0
2016-Nov-27 22:31N 59°40' E 023°18'0 0.0
2016-Nov-27 21:31N 59°40' E 023°18'0 0.0
2016-Nov-27 20:28N 59°40' E 023°18'0 0.0
2016-Nov-27 19:31N 59°40' E 023°18'0 0.0
2016-Nov-27 18:28N 59°40' E 023°18'0 0.0
2016-Nov-27 17:31N 59°40' E 023°18'0 0.0
2016-Nov-27 16:31N 59°40' E 023°18'0 0.0
2016-Nov-27 15:31N 59°40' E 023°18'0 0.0
2016-Nov-27 14:31N 59°40' E 023°18'0 0.0
2016-Nov-27 13:31N 59°40' E 023°18'0 0.0
2016-Nov-27 12:31N 59°40' E 023°18'0 0.0
2016-Nov-27 11:31N 59°40' E 023°18'0 0.0
2016-Nov-27 10:31N 59°40' E 023°18'0 0.0
2016-Nov-27 09:31N 59°40' E 023°18'0 0.0
2016-Nov-27 08:31N 59°40' E 023°18'0 0.0
2016-Nov-27 07:31N 59°40' E 023°18'0 0.0
2016-Nov-27 06:31N 59°40' E 023°18'0 0.0
2016-Nov-27 05:31N 59°40' E 023°18'0 0.0
2016-Nov-27 04:31N 59°40' E 023°18'0 0.0
2016-Nov-27 03:31N 59°40' E 023°18'0 0.0
2016-Nov-27 02:31N 59°40' E 023°18'0 0.0
2016-Nov-27 01:31N 59°40' E 023°18'0 0.0
2016-Nov-27 00:31N 59°40' E 023°18'3 3.4
2016-Nov-26 23:33N 59°40' E 023°25'6 6.4
2016-Nov-26 22:33N 59°42' E 023°37'7 6.5
2016-Nov-26 21:33N 59°43' E 023°49'7 6.7
2016-Nov-26 20:32N 59°45' E 024°02'  

Dump ship's entire track history